Terminal Aerodrome Forecast
Issued by NWS

Home | Current Version | Previous Version | Text Only | Print | Product List | Glossary On
Versions: 1 2 3 4 5 6 7 8 9 10 11 12 13 14 15 16 17 18 19 20 21 22 23 24 25 26 27
419
FTUS43 KDLH 032018 AAB
TAFHIB
TAF AMD
KHIB 032018Z 0320/0418 18006KT P6SM OVC020
     FM040000 17005KT P6SM OVC015
     FM040800 16006KT P6SM VCSH OVC008
     FM041000 15006KT 3SM -SN OVC003=

USA.gov is the U.S. government's official web portal to all federal, state and local government web resources and services.